Time;durP1;ratioP1;P1;durP2;ratioP2;P2;SDS_P1;SDS_P2;PMS_P1;PMS_P2;Temp;Humidity;BMP_temperature;BMP_pressure;BME280_temperature;BME280_humidity;BME280_pressure;Samples;Min_cycle;Max_cycle;Signal;HPM_P1;HPM_P2
2021/08/24 17:23:39;;;;;;;;;;;22.40;52.60;;;;;;5112986;27;19913;-87
2021/08/24 17:26:05;;;;;;;;;;;22.00;54.40;;;;;;5111209;28;20002;-88
2021/08/24 17:28:32;;;;;;;;;;;22.00;56.10;;;;;;5111815;28;20434;-88
2021/08/24 17:30:58;;;;;;;;;;;21.90;56.90;;;;;;5143767;27;20002;-87
2021/08/24 17:33:24;;;;;;;;;;;21.90;57.40;;;;;;5110133;28;19905;-88
2021/08/24 17:35:50;;;;;;;;;;;21.90;57.90;;;;;;5110032;28;19922;-88
2021/08/24 17:38:16;;;;;;;;;;;21.90;58.10;;;;;;5111553;28;19904;-89
2021/08/24 17:40:42;;;;;;;;;;;21.80;58.00;;;;;;5107751;28;20004;-87
2021/08/24 17:43:08;;;;;;;;;;;21.80;58.40;;;;;;5144208;27;19919;-87
2021/08/24 17:45:35;;;;;;;;;;;21.80;58.70;;;;;;5104919;28;20287;-88
2021/08/24 17:48:24;;;;;;;;;;;21.80;59.10;;;;;;5111829;28;20390;-88
2021/08/24 17:51:01;;;;;;;;;;;21.80;59.40;;;;;;5112804;28;19935;-88
2021/08/24 17:53:27;;;;;;;;;;;21.70;59.60;;;;;;5145002;27;19908;-88
2021/08/24 17:55:53;;;;;;;;;;;21.70;59.80;;;;;;5110259;28;19908;-87
2021/08/24 17:58:18;;;;;;;;;;;21.70;60.00;;;;;;5111568;28;20006;-88
2021/08/24 18:00:44;;;;;;;;;;;21.60;60.40;;;;;;5111529;28;20379;-88
2021/08/24 18:03:10;;;;;;;;;;;21.60;60.60;;;;;;5111475;28;20016;-88
2021/08/24 18:05:42;;;;;;;;;;;21.50;61.00;;;;;;5111694;28;19973;-88
2021/08/24 18:08:11;;;;;;;;;;;21.50;61.30;;;;;;5111370;28;19908;-89
2021/08/24 18:10:37;;;;;;;;;;;21.40;61.40;;;;;;5110124;28;19938;-88
2021/08/24 18:13:03;;;;;;;;;;;21.30;61.70;;;;;;5111337;28;19908;-89
2021/08/24 18:15:30;;;;;;;;;;;21.30;62.20;;;;;;5111405;28;19914;-88
2021/08/24 18:17:56;;;;;;;;;;;21.20;62.60;;;;;;5111311;28;19961;-88
2021/08/24 18:20:22;;;;;;;;;;;21.10;62.80;;;;;;5111236;28;19947;-88
2021/08/24 18:22:48;;;;;;;;;;;21.10;63.10;;;;;;5111039;28;19963;-89
2021/08/24 18:25:15;;;;;;;;;;;21.00;63.40;;;;;;5110130;28;19915;-88
2021/08/24 18:27:40;;;;;;;;;;;21.00;63.60;;;;;;5111376;28;19908;-89
2021/08/24 18:30:06;;;;;;;;;;;20.90;63.80;;;;;;5143757;27;19956;-88
2021/08/24 18:32:32;;;;;;;;;;;20.80;64.20;;;;;;5111331;28;19908;-89
2021/08/24 18:34:57;;;;;;;;;;;20.80;64.50;;;;;;5098575;28;20361;-88
2021/08/24 18:37:23;;;;;;;;;;;20.70;64.80;;;;;;5097131;28;20390;-88
2021/08/24 18:39:48;;;;;;;;;;;20.60;65.10;;;;;;5097546;28;20425;-89
2021/08/24 18:42:14;;;;;;;;;;;20.60;65.20;;;;;;5097243;28;19916;-88
2021/08/24 18:44:40;;;;;;;;;;;20.50;65.50;;;;;;5095277;28;19915;-88
2021/08/24 18:47:06;;;;;;;;;;;20.50;66.00;;;;;;5095277;28;19908;-89
2021/08/24 18:49:32;;;;;;;;;;;20.40;66.00;;;;;;5095597;28;19969;-89
2021/08/24 18:51:58;;;;;;;;;;;20.30;66.40;;;;;;5096922;28;20333;-89
2021/08/24 18:54:23;;;;;;;;;;;20.30;66.60;;;;;;5098012;28;19908;-88
2021/08/24 18:56:49;;;;;;;;;;;20.30;66.80;;;;;;5098549;28;19912;-89
2021/08/24 18:59:14;;;;;;;;;;;20.20;67.10;;;;;;5097370;28;20022;-89
2021/08/24 19:01:41;;;;;;;;;;;20.20;68.00;;;;;;5097393;28;19923;-88
2021/08/24 19:04:07;;;;;;;;;;;20.10;67.60;;;;;;5098347;28;19908;-88
2021/08/24 19:06:33;;;;;;;;;;;20.00;67.80;;;;;;5098518;28;20011;-89
2021/08/24 19:08:59;;;;;;;;;;;20.00;68.10;;;;;;5097169;28;19974;-88
2021/08/24 19:11:27;;;;;;;;;;;19.90;68.40;;;;;;5097642;28;19996;-89
2021/08/24 19:13:54;;;;;;;;;;;19.80;68.80;;;;;;5096766;28;19915;-88
2021/08/24 19:16:20;;;;;;;;;;;19.80;69.10;;;;;;5096691;28;19995;-88
2021/08/24 19:18:46;;;;;;;;;;;19.70;69.30;;;;;;5095050;28;19915;-88
2021/08/24 19:21:12;;;;;;;;;;;19.60;69.60;;;;;;5096068;28;19908;-88
2021/08/24 19:23:39;;;;;;;;;;;19.60;69.90;;;;;;5096285;28;19908;-88
2021/08/24 19:26:05;;;;;;;;;;;19.60;70.20;;;;;;5096014;28;19908;-88
2021/08/24 19:28:30;;;;;;;;;;;19.60;70.30;;;;;;5094416;28;20368;-88
2021/08/24 19:30:56;;;;;;;;;;;19.50;70.50;;;;;;5094845;28;19999;-88
2021/08/24 19:33:22;;;;;;;;;;;19.50;70.80;;;;;;5095654;28;19915;-88
2021/08/24 19:35:47;;;;;;;;;;;19.50;71.20;;;;;;5094772;28;19958;-88
2021/08/24 19:38:13;;;;;;;;;;;19.40;71.40;;;;;;5094726;28;19908;-88
2021/08/24 19:40:39;;;;;;;;;;;19.30;71.50;;;;;;5094301;28;19922;-89
2021/08/24 19:43:05;;;;;;;;;;;19.30;71.80;;;;;;5095533;28;19912;-90
2021/08/24 19:45:32;;;;;;;;;;;19.30;72.10;;;;;;5083455;28;19916;-89
2021/08/24 19:47:57;;;;;;;;;;;19.20;72.20;;;;;;5105284;28;19915;-87
2021/08/24 19:50:24;;;;;;;;;;;19.20;72.60;;;;;;5103711;28;19908;-88
2021/08/24 19:52:49;;;;;;;;;;;19.20;72.80;;;;;;5103773;28;19912;-89
2021/08/24 20:05:29;;;;;;;;;;;18.90;69.80;;;;;;5111690;27;19912;-88
2021/08/24 20:07:55;;;;;;;;;;;18.80;71.80;;;;;;5093265;28;19912;-90
2021/08/24 20:10:20;;;;;;;;;;;18.70;73.30;;;;;;5093827;28;19937;-91
2021/08/24 20:12:46;;;;;;;;;;;18.60;74.40;;;;;;5093726;28;20253;-90
2021/08/24 20:15:13;;;;;;;;;;;18.60;75.10;;;;;;5093676;28;19951;-91
2021/08/24 20:17:39;;;;;;;;;;;18.60;75.70;;;;;;5093628;28;19942;-89
2021/08/24 20:20:05;;;;;;;;;;;18.60;76.10;;;;;;5111843;28;19908;-90
2021/08/24 20:22:31;;;;;;;;;;;18.60;76.50;;;;;;5111718;28;20348;-89
2021/08/24 20:24:57;;;;;;;;;;;18.50;77.00;;;;;;5093540;28;19917;-90
2021/08/24 20:27:23;;;;;;;;;;;18.60;77.40;;;;;;5111682;28;19915;-91
2021/08/24 20:29:48;;;;;;;;;;;18.50;77.70;;;;;;5111967;28;19912;-92
2021/08/24 20:32:14;;;;;;;;;;;18.50;78.00;;;;;;5092619;28;21399;-90
2021/08/24 20:34:40;;;;;;;;;;;18.50;78.30;;;;;;5111033;28;20280;-89
2021/08/24 20:37:06;;;;;;;;;;;18.40;78.50;;;;;;5111044;28;20428;-89
2021/08/24 20:39:32;;;;;;;;;;;18.50;78.80;;;;;;5092693;28;20351;-90
2021/08/24 20:41:58;;;;;;;;;;;18.40;79.00;;;;;;5111361;28;19908;-91
2021/08/24 20:44:23;;;;;;;;;;;18.40;79.20;;;;;;5093121;28;19912;-90
